Flight Track Log - Related Links

Times and Time Zones

All times are in EDT time to prevent confusion due to time zone crossing. See the SKW5315 flight status page for this flight to view local times or setup timezone preferences in your user account.

Time Position Orientation Groundspeed Altitude Reporting Facility
EDT Latitude Longitude Course Direction KTS MPH feet Rate Location/Type
Thu 11:00:01 AM 39.8167 -104.6500 288° West 152 175 7,400  Level Denver TRACON
Thu 11:00:55 AM 39.7667 -104.6500 180° South 187 215 8,600 1,300 Climbing Denver TRACON
Thu 11:02:01 AM 39.7167 -104.6667 194° South 212 244 10,000 1,095 Climbing Denver TRACON
Thu 11:03:00 AM 39.8680 -104.9717 288° West  Level FlightAware Approximate
Thu 11:03:01 AM 39.7167 -104.7333 270° West 227 261 10,900  Level Denver TRACON
Thu 11:04:00 AM 39.8918 -105.0672 288° West  Level FlightAware Approximate
Thu 11:04:01 AM 39.7667 -104.7833 322° Northwest 210 242 12,600  Level Denver TRACON
Thu 11:04:18 AM 39.7808 -104.8053 310° West 209 241 13,100 1,595 Climbing Denver Center
Thu 11:05:00 AM 39.9146 -105.1583 288° West  Level FlightAware Approximate
Thu 11:05:20 AM 39.8278 -104.8533 322° Northwest 213 245 14,700  Level Denver Center
Thu 11:06:22 AM 39.8736 -104.8986 323° Northwest 208 239 16,200 1,306 Climbing Denver Center
Thu 11:07:24 AM 39.8853 -104.9725 282° West 197 227 17,400 1,065 Climbing Denver Center
Thu 11:08:26 AM 39.8936 -105.0389 279° West 190 219 18,400 1,065 Climbing Denver Center
Thu 11:09:28 AM 39.9103 -105.1156 286° West 206 237 19,600 1,113 Climbing Denver Center
Thu 11:10:30 AM 39.9264 -105.1861 287° West 205 236 20,700 1,016 Climbing Denver Center
Thu 11:11:32 AM 39.9406 -105.2569 285° West 205 236 21,700 919 Climbing Denver Center
Thu 11:12:34 AM 39.9581 -105.3367 286° West 212 244 22,600 774 Climbing Denver Center
Thu 11:13:36 AM 39.9753 -105.4133 286° West 219 252 23,300 726 Climbing Denver Center
Thu 11:14:38 AM 39.9953 -105.4967 287° West 224 258 24,100 677 Climbing Denver Center
Thu 11:15:40 AM 40.0111 -105.5694 286° West 225 259 24,700 484 Climbing Denver Center
Thu 11:16:42 AM 40.0236 -105.6431 283° West 219 252 25,100 532 Climbing Denver Center
Thu 11:17:44 AM 40.0264 -105.7408 272° West 224 258 25,800 435 Climbing Denver Center
Thu 11:18:46 AM 40.0264 -105.8278 270° West 234 269 26,000 145 Climbing Denver Center
Thu 11:19:48 AM 40.0228 -105.9083 267° West 227 261 26,100  Climbing Denver Center
Thu 11:20:50 AM 40.0183 -105.9964 266° West 237 273 26,000 -48 Descending Denver Center
Thu 11:21:52 AM 40.0158 -106.0831 268° West 240 276 26,000  Level Denver Center
Thu 11:22:54 AM 40.0125 -106.1650 267° West 231 266 26,000  Level Denver Center
Thu 11:23:56 AM 40.0086 -106.2619 267° West 224 258 26,000  Level Denver Center
Thu 11:24:58 AM 40.0047 -106.3450 267° West 227 261 26,000  Level Denver Center
Thu 11:26:00 AM 40.0022 -106.4278 268° West 228 262 26,000  Level Denver Center
Thu 11:27:02 AM 40.0467 -106.5119 305° West 246 283 26,000  Level Denver Center
Thu 11:28:04 AM 40.0867 -106.5769 309° West 239 275 26,000  Level Denver Center
Thu 11:29:06 AM 40.1231 -106.6428 306° West 235 270 26,000  Level Denver Center
Thu 11:30:08 AM 40.1683 -106.7169 309° West 234 269 26,000  Level Denver Center
Thu 11:31:11 AM 40.2044 -106.7783 308° West 224 258 26,000  Level Denver Center
Thu 11:32:13 AM 40.2475 -106.8494 308° West 231 266 26,000  Level Denver Center
Thu 11:33:15 AM 40.2889 -106.9181 308° West 237 273 26,000  Level Denver Center
Thu 11:34:17 AM 40.3342 -106.9939 308° West 238 274 26,000  Level Denver Center
Thu 11:35:19 AM 40.3717 -107.0592 307° West 235 270 26,000  Level Denver Center
Thu 11:36:21 AM 40.4192 -107.1356 309° West 241 277 26,000  Level Denver Center
Thu 11:37:23 AM 40.4572 -107.2008 307° West 237 273 26,000  Level Denver Center
Thu 11:38:25 AM 40.5014 -107.2767 307° West 235 270 26,000  Level Denver Center
Thu 11:39:27 AM 40.5400 -107.3411 308° West 235 270 26,000  Level Denver Center
Thu 11:40:29 AM 40.5867 -107.4114 311° West 231 266 26,000  Level Denver Center
Thu 11:41:31 AM 40.6297 -107.4767 311° West 243 280 26,000  Level Denver Center
Thu 11:42:33 AM 40.6764 -107.5506 310° West 238 274 26,000  Level Denver Center
Thu 11:43:35 AM 40.7172 -107.6136 311° West 236 272 26,000  Level Denver Center
Thu 11:44:37 AM 40.7650 -107.6867 311° West 246 283 26,000  Level Denver Center
Thu 11:45:39 AM 40.8050 -107.7528 309° West 243 280 26,000  Level Denver Center
Thu 11:46:41 AM 40.8519 -107.8244 311° West 231 266 26,000  Level Denver Center
Thu 11:47:43 AM 40.8892 -107.8850 309° West 223 257 26,000  Level Denver Center
Thu 11:48:45 AM 40.9328 -107.9558 309° West 223 257 26,000  Level Denver Center
Thu 11:49:47 AM 40.9736 -108.0197 310° West 234 269 26,000  Level Denver Center
Thu 11:50:49 AM 41.0219 -108.0942 311° West 238 274 26,000 -362 Level Denver Center
Thu 11:51:43 AM 41.0531 -108.1433 310° West 224 258 25,300 -1,241 Descending Salt Lake Center
Thu 11:52:45 AM 41.0947 -108.2097 310° West 212 244 23,600 -1,597 Descending Salt Lake Center
Thu 11:53:47 AM 41.1336 -108.2753 308° West 231 266 22,000 -1,645 Descending Salt Lake Center
Thu 11:54:49 AM 41.1831 -108.3522 311° West 244 281 20,200 -1,452 Descending Salt Lake Center
Thu 11:55:51 AM 41.2239 -108.4164 310° West 238 274 19,000 -1,306 Descending Salt Lake Center
Thu 11:56:53 AM 41.2658 -108.4847 309° West 216 249 17,500 -1,355 Descending Salt Lake Center
Thu 11:57:55 AM 41.3003 -108.5419 309° West 208 239 16,200 -1,306 Descending Salt Lake Center
Thu 11:58:57 AM 41.3392 -108.6064 309° West 202 232 14,800 -1,306 Descending Salt Lake Center
Thu 11:59:59 AM 41.3731 -108.6603 310° West 198 228 13,500 -1,306 Descending Salt Lake Center
Thu 12:01:01 PM 41.4097 -108.7206 309° West 189 217 12,100 -1,161 Descending Salt Lake Center
Thu 12:02:03 PM 41.4431 -108.7769 308° West 196 226 11,100 -1,016 Descending Salt Lake Center
Thu 12:03:05 PM 41.4844 -108.8453 309° West 207 238 10,000 -774 Descending Salt Lake Center
Thu 12:04:07 PM 41.5203 -108.9028 310° West 211 243 9,500 -484 Descending Salt Lake Center
Thu 12:05:09 PM 41.5606 -108.9650 311° West 205 236 9,000 -484 Descending Salt Lake Center
Thu 12:06:11 PM 41.6025 -109.0131 319° Northwest 206 237 8,500 -484 Descending Salt Lake Center

Login

Don't have an account? Register now (free) for customized features, flight alerts, and more!